Hlavní strana
METAR-TAF:

METAR-TAF

Letiště :

Daniel Field Airport

Augusta, Georgie, Spojené státy americké

zeměpisná šířka: 33-28-01N, zeměpisná délka: 082-02-19W, výška: 128 m

Aktuální stav počasí

Zpráva byla vytvořena před 9 minutami, v 10:53 UTC
Jihozápadní vítr 3 kt
Teplota 22°C
Vlhkost vzduchu 78%
Tlak 1022 hPa
Viditelnost: 16.1 km
Jasno

METAR: KDNL 241053Z AUTO 23003KT 10SM CLR 22/18 A3017 RMK AO2 SLP212 T02220178

Čas: 07:02 (11:02 UTC)

Předpověď počasí

Zpráva byla vytvořena před 2 hodinami a 4 minutami, v 08:58 UTC
Předpověď platná od 24 v 09 UTC do 25 v 06 UTC
Jihozápadní vítr 6 kt
Viditelnost: 10 km
Skoro jasno ve výšce 25000 ft
Od 24 v 1400 UTC
Západní vítr 7 kt
Viditelnost: 10 km
Polojasno ve výšce 4500 ft
Od 25 v 0100 UTC
Západní vítr 3 kt
Viditelnost: 10 km
Skoro jasno ve výšce 25000 ft

TAF: KDNL 240858Z 2409/2506 22006KT P6SM FEW250 FM241400 27007KT P6SM SCT045 FM250100 28003KT P6SM FEW250

Stav a předpovědi počasí z více než 4 000 letišť (zprávy METAR a TAF).

Červené a žluté tečky na mapě představují dostupné meteorologické stanice.

Když kurzor umístíte na tečku, zobrazí se název stanice.

Pak kliknutím zobrazíte stav a předpověď počasí.

Chcete-li změnit mapu, kliknutím na zelené tlačítko se znaménkem +mapu přiblížíte, kliknutím na zelené tlačítko se znaménkem – mapu oddálíte a kliknutím na zelené šipky přejdete na sousední mapy.


METAR-TAF: